createdAt,value
2019-02-10T00:00:51.998Z,99.90
2019-02-10T00:03:20.580Z,99.90
2019-02-10T00:05:49.115Z,99.90
2019-02-10T00:08:17.605Z,99.90
2019-02-10T00:10:46.213Z,99.90
2019-02-10T00:13:25.575Z,99.90
2019-02-10T00:15:54.665Z,99.90
2019-02-10T00:18:23.578Z,99.90
2019-02-10T00:20:52.138Z,99.90
2019-02-10T00:23:20.814Z,99.90
2019-02-10T00:25:49.273Z,99.90
2019-02-10T00:28:17.839Z,99.90
2019-02-10T00:30:46.372Z,99.90
2019-02-10T00:33:15.010Z,99.90
2019-02-10T00:35:43.555Z,99.90
2019-02-10T00:38:12.043Z,99.90
2019-02-10T00:40:40.585Z,99.90
2019-02-10T00:43:09.086Z,99.90
2019-02-10T00:45:37.740Z,99.90
2019-02-10T00:48:06.229Z,99.90
2019-02-10T00:50:35.026Z,99.90
2019-02-10T00:53:03.660Z,99.90
2019-02-10T00:55:32.273Z,99.90
2019-02-10T00:58:00.781Z,99.90
2019-02-10T01:00:29.328Z,99.90
2019-02-10T01:02:57.893Z,99.90
2019-02-10T01:05:26.441Z,99.90
2019-02-10T01:07:54.994Z,99.90
2019-02-10T01:10:25.605Z,99.90
2019-02-10T01:12:54.499Z,99.90
2019-02-10T01:15:23.069Z,99.90
2019-02-10T01:17:51.616Z,99.90
2019-02-10T01:20:20.245Z,99.90
2019-02-10T01:22:48.787Z,99.90
2019-02-10T01:25:17.349Z,99.90
2019-02-10T01:27:46.024Z,99.90
2019-02-10T01:30:15.847Z,99.90
2019-02-10T01:32:44.402Z,99.90
2019-02-10T01:35:13.294Z,99.90
2019-02-10T01:37:41.900Z,99.90
2019-02-10T01:40:11.333Z,99.90
2019-02-10T01:42:39.879Z,99.90
2019-02-10T01:45:13.122Z,99.90
2019-02-10T01:47:41.784Z,99.90
2019-02-10T01:50:11.590Z,99.90
2019-02-10T01:52:40.582Z,99.90
2019-02-10T01:55:13.459Z,99.90
2019-02-10T01:57:42.597Z,99.90
2019-02-10T02:00:16.185Z,99.90
2019-02-10T02:02:44.794Z,99.90
2019-02-10T02:05:13.597Z,99.90
2019-02-10T02:07:42.217Z,99.90
2019-02-10T02:10:13.889Z,99.90
2019-02-10T02:12:42.385Z,99.90
2019-02-10T02:15:13.301Z,99.90
2019-02-10T02:17:41.833Z,99.90
2019-02-10T02:20:13.038Z,99.90
2019-02-10T02:22:41.531Z,99.90
2019-02-10T02:25:12.306Z,99.90
2019-02-10T02:27:40.836Z,99.90
2019-02-10T02:30:14.410Z,99.90
2019-02-10T02:32:43.533Z,99.90
2019-02-10T02:35:12.159Z,99.90
2019-02-10T02:37:40.693Z,99.90
2019-02-10T02:40:10.734Z,99.90
2019-02-10T02:42:39.914Z,99.90
2019-02-10T02:45:10.965Z,99.90
2019-02-10T02:47:39.703Z,99.90
2019-02-10T02:50:10.758Z,99.90
2019-02-10T02:52:39.558Z,99.90
2019-02-10T02:55:11.449Z,99.90
2019-02-10T02:57:40.071Z,99.90
2019-02-10T03:00:10.357Z,99.90
2019-02-10T03:02:39.329Z,99.90
2019-02-10T03:05:09.860Z,99.90
2019-02-10T03:07:38.449Z,99.90
2019-02-10T03:10:08.420Z,99.90
2019-02-10T03:12:36.989Z,99.90
2019-02-10T03:15:08.249Z,99.90
2019-02-10T03:17:36.831Z,99.90
2019-02-10T03:20:07.645Z,99.90
2019-02-10T03:22:36.204Z,99.90
2019-02-10T03:25:06.183Z,99.90
2019-02-10T03:27:34.761Z,99.90
2019-02-10T03:30:03.554Z,99.90
2019-02-10T03:32:32.121Z,99.90
2019-02-10T03:35:00.667Z,99.90
2019-02-10T03:37:29.227Z,99.90
2019-02-10T03:39:57.762Z,99.90
2019-02-10T03:42:26.387Z,99.90
2019-02-10T03:44:55.222Z,99.90
2019-02-10T03:47:23.786Z,99.90
2019-02-10T03:49:52.337Z,99.90
2019-02-10T03:52:20.902Z,99.90
2019-02-10T03:54:49.429Z,99.90
2019-02-10T03:57:18.072Z,99.90
2019-02-10T03:59:46.681Z,99.90
2019-02-10T04:02:15.246Z,99.90
2019-02-10T04:04:44.090Z,99.90
2019-02-10T04:07:12.580Z,99.90
2019-02-10T04:09:41.044Z,99.90
2019-02-10T04:12:09.605Z,99.90
2019-02-10T04:14:38.397Z,99.90
2019-02-10T04:17:06.962Z,99.90
2019-02-10T04:19:35.512Z,99.90
2019-02-10T04:22:04.137Z,99.90
2019-02-10T04:24:32.693Z,99.90
2019-02-10T04:27:01.275Z,99.90
2019-02-10T04:29:29.969Z,99.90
2019-02-10T04:31:58.729Z,99.90
2019-02-10T04:34:27.278Z,99.90
2019-02-10T04:36:55.852Z,99.90
2019-02-10T04:39:24.427Z,99.90
2019-02-10T04:41:52.952Z,99.90
2019-02-10T04:44:21.530Z,99.90
2019-02-10T04:46:50.099Z,99.90
2019-02-10T04:49:18.720Z,99.90
2019-02-10T04:51:47.208Z,99.90
2019-02-10T04:54:15.750Z,99.90
2019-02-10T04:56:44.342Z,99.90
2019-02-10T04:59:12.881Z,99.90
2019-02-10T05:01:41.496Z,99.90
2019-02-10T05:04:10.141Z,99.90
2019-02-10T05:06:38.681Z,99.90
2019-02-10T05:09:07.258Z,99.90
2019-02-10T05:11:35.799Z,99.90
2019-02-10T05:14:04.429Z,99.90
2019-02-10T05:16:32.912Z,99.90
2019-02-10T05:19:01.473Z,99.90
2019-02-10T05:21:30.033Z,99.90
2019-02-10T05:24:03.630Z,99.90
2019-02-10T05:26:28.783Z,99.90
2019-02-10T05:28:57.348Z,99.90
2019-02-10T05:31:25.838Z,99.90
2019-02-10T05:33:54.388Z,99.90
2019-02-10T05:36:22.857Z,99.90
2019-02-10T05:38:51.425Z,99.90
2019-02-10T05:41:19.881Z,99.90
2019-02-10T05:43:48.534Z,99.90
2019-02-10T05:46:17.076Z,99.90
2019-02-10T05:48:45.645Z,99.90
2019-02-10T05:51:14.187Z,99.90
2019-02-10T05:53:42.762Z,99.90
2019-02-10T05:56:11.225Z,99.90
2019-02-10T05:58:39.808Z,99.90
2019-02-10T06:01:45.001Z,99.90
2019-02-10T06:04:13.565Z,99.90
2019-02-10T06:06:42.108Z,99.90
2019-02-10T06:09:10.618Z,99.90
2019-02-10T06:11:39.439Z,99.90
2019-02-10T06:14:08.003Z,99.90
2019-02-10T06:16:36.808Z,99.90
2019-02-10T06:19:05.374Z,99.90
2019-02-10T06:21:33.921Z,99.90
2019-02-10T06:24:02.491Z,99.90
2019-02-10T06:26:31.021Z,99.90
2019-02-10T06:28:59.510Z,99.90
2019-02-10T06:31:27.969Z,99.90
2019-02-10T06:33:56.546Z,99.90
2019-02-10T06:36:25.100Z,99.90
2019-02-10T06:38:53.661Z,99.90
2019-02-10T06:41:22.213Z,99.90
2019-02-10T06:43:50.771Z,99.90
2019-02-10T06:46:19.244Z,99.90
2019-02-10T06:48:47.812Z,99.90
2019-02-10T06:51:16.348Z,99.90
2019-02-10T06:53:44.953Z,99.90
2019-02-10T06:56:13.504Z,99.90
2019-02-10T06:58:42.082Z,99.90
2019-02-10T07:01:12.274Z,99.90
2019-02-10T07:04:01.762Z,99.90
2019-02-10T07:06:30.308Z,99.90
2019-02-10T07:08:59.020Z,99.90
2019-02-10T07:11:27.500Z,99.90
2019-02-10T07:13:57.876Z,99.90
2019-02-10T07:16:35.419Z,99.90
2019-02-10T07:19:37.585Z,99.90
2019-02-10T07:22:32.151Z,99.90
2019-02-10T07:25:15.705Z,99.90
2019-02-10T07:27:46.361Z,99.90
2019-02-10T07:30:18.016Z,99.90
2019-02-10T07:32:51.923Z,99.90
2019-02-10T07:35:29.457Z,99.90
2019-02-10T07:38:12.921Z,99.90
2019-02-10T07:40:53.480Z,99.90
2019-02-10T07:43:30.869Z,99.90
2019-02-10T07:46:08.329Z,99.90
2019-02-10T07:48:56.081Z,99.90
2019-02-10T07:51:44.898Z,99.90
2019-02-10T07:54:16.508Z,99.90
2019-02-10T07:56:53.805Z,99.90
2019-02-10T07:59:25.446Z,99.90
2019-02-10T08:02:30.309Z,99.90
2019-02-10T08:05:21.999Z,99.90
2019-02-10T08:07:56.480Z,99.90
2019-02-10T08:10:40.210Z,99.90
2019-02-10T08:13:33.166Z,99.90
2019-02-10T08:16:08.804Z,99.90
2019-02-10T08:19:02.297Z,99.90
2019-02-10T08:21:33.944Z,99.90
2019-02-10T08:24:21.696Z,99.90
2019-02-10T08:26:53.331Z,99.90
2019-02-10T08:29:30.781Z,99.90
2019-02-10T08:32:19.246Z,99.90
2019-02-10T08:34:59.894Z,99.90
2019-02-10T08:37:52.266Z,99.90
2019-02-10T08:40:23.876Z,99.90
2019-02-10T08:43:07.421Z,99.90
2019-02-10T08:45:39.077Z,99.90
2019-02-10T08:48:25.841Z,99.90
2019-02-10T08:51:16.710Z,99.90
2019-02-10T08:53:45.296Z,99.90
2019-02-10T08:56:13.829Z,99.90
2019-02-10T08:58:42.342Z,99.90
2019-02-10T09:01:10.871Z,99.90
2019-02-10T09:03:39.432Z,99.90
2019-02-10T09:06:08.011Z,99.90
2019-02-10T09:08:36.543Z,99.90
2019-02-10T09:11:05.220Z,99.90
2019-02-10T09:13:34.141Z,99.90
2019-02-10T09:16:02.625Z,99.90
2019-02-10T09:18:31.114Z,99.90
2019-02-10T09:20:59.660Z,99.90
2019-02-10T09:23:28.160Z,99.90
2019-02-10T09:25:56.705Z,99.90
2019-02-10T09:28:25.264Z,99.90
2019-02-10T09:30:53.737Z,99.90
2019-02-10T09:33:22.312Z,99.90
2019-02-10T09:35:50.857Z,99.90
2019-02-10T09:38:19.425Z,99.90
2019-02-10T09:40:47.905Z,99.90
2019-02-10T09:43:16.473Z,99.90
2019-02-10T09:45:44.947Z,99.50
2019-02-10T09:48:13.514Z,99.30
2019-02-10T09:50:41.990Z,99.20
2019-02-10T09:53:10.555Z,99.10
2019-02-10T09:55:39.347Z,98.90
2019-02-10T09:58:07.917Z,98.50
2019-02-10T10:00:36.478Z,98.80
2019-02-10T10:03:05.100Z,98.60
2019-02-10T10:05:33.564Z,98.20
2019-02-10T10:08:02.433Z,98.30
2019-02-10T10:10:30.976Z,97.90
2019-02-10T10:12:59.514Z,97.50
2019-02-10T10:15:28.131Z,97.30
2019-02-10T10:17:56.674Z,97.30
2019-02-10T10:20:25.248Z,96.80
2019-02-10T10:22:53.793Z,96.10
2019-02-10T10:25:22.353Z,96.00
2019-02-10T10:27:50.821Z,95.10
2019-02-10T10:30:21.932Z,94.60
2019-02-10T10:32:50.554Z,94.10
2019-02-10T10:35:19.048Z,94.00
2019-02-10T10:37:47.663Z,93.60
2019-02-10T10:40:16.225Z,93.60
2019-02-10T10:42:44.772Z,93.50
2019-02-10T10:45:14.915Z,93.30
2019-02-10T10:47:43.533Z,93.20
2019-02-10T10:50:15.432Z,92.60
2019-02-10T10:52:43.988Z,92.50
2019-02-10T10:55:13.389Z,92.40
2019-02-10T10:57:42.200Z,91.60
2019-02-10T11:00:15.609Z,91.30
2019-02-10T11:02:44.153Z,91.50
2019-02-10T11:05:12.799Z,91.00
2019-02-10T11:07:41.432Z,91.00
2019-02-10T11:10:11.765Z,91.00
2019-02-10T11:12:40.246Z,91.10
2019-02-10T11:15:14.082Z,90.70
2019-02-10T11:17:42.622Z,90.70
2019-02-10T11:20:12.024Z,90.60
2019-02-10T11:22:40.641Z,90.70
2019-02-10T11:25:10.467Z,90.90
2019-02-10T11:27:39.005Z,91.00
2019-02-10T11:30:13.361Z,90.90
2019-02-10T11:32:42.289Z,90.20
2019-02-10T11:35:11.105Z,90.50
2019-02-10T11:37:39.726Z,90.50
2019-02-10T11:40:11.345Z,90.40
2019-02-10T11:42:39.829Z,90.80
2019-02-10T11:45:10.849Z,88.70
2019-02-10T11:47:39.320Z,88.80
2019-02-10T11:50:10.347Z,88.20
2019-02-10T11:52:38.885Z,86.40
2019-02-10T11:55:09.118Z,87.10
2019-02-10T11:57:37.660Z,86.70
2019-02-10T12:00:14.193Z,86.30
2019-02-10T12:02:42.737Z,84.50
2019-02-10T12:05:11.770Z,83.70
2019-02-10T12:07:40.327Z,81.80
2019-02-10T12:10:13.161Z,81.30
2019-02-10T12:12:41.735Z,80.90
2019-02-10T12:15:12.503Z,81.70
2019-02-10T12:17:41.001Z,82.00
2019-02-10T12:20:11.795Z,83.70
2019-02-10T12:22:40.361Z,83.70
2019-02-10T12:25:10.354Z,85.20
2019-02-10T12:27:38.921Z,84.30
2019-02-10T12:30:13.109Z,84.90
2019-02-10T12:32:41.949Z,84.10
2019-02-10T12:35:11.753Z,84.80
2019-02-10T12:37:40.664Z,85.40
2019-02-10T12:40:10.741Z,86.10
2019-02-10T12:42:39.229Z,86.00
2019-02-10T12:45:10.436Z,87.00
2019-02-10T12:47:39.083Z,88.30
2019-02-10T12:50:13.367Z,90.10
2019-02-10T12:52:41.951Z,90.10
2019-02-10T12:55:12.025Z,91.10
2019-02-10T12:57:40.593Z,93.60
2019-02-10T13:00:17.421Z,94.30
2019-02-10T13:02:46.126Z,95.40
2019-02-10T13:05:14.591Z,98.60
2019-02-10T13:07:43.166Z,99.90
2019-02-10T13:10:18.015Z,99.90
2019-02-10T13:12:46.103Z,99.90
2019-02-10T13:15:14.669Z,99.90
2019-02-10T13:17:43.398Z,99.90
2019-02-10T13:20:13.153Z,99.90
2019-02-10T13:22:41.781Z,99.90
2019-02-10T13:25:11.801Z,99.90
2019-02-10T13:27:40.529Z,99.90
2019-02-10T13:30:12.490Z,99.90
2019-02-10T13:32:41.050Z,99.90
2019-02-10T13:35:10.042Z,99.90
2019-02-10T13:37:38.961Z,99.90
2019-02-10T13:40:16.895Z,99.90
2019-02-10T13:42:45.725Z,99.90
2019-02-10T13:45:14.268Z,99.90
2019-02-10T13:47:42.996Z,99.90
2019-02-10T13:50:14.348Z,99.90
2019-02-10T13:52:42.922Z,99.90
2019-02-10T13:55:13.211Z,99.90
2019-02-10T13:57:42.153Z,99.90
2019-02-10T14:00:24.858Z,99.90
2019-02-10T14:02:53.421Z,99.90
2019-02-10T14:05:22.332Z,99.90
2019-02-10T14:07:51.277Z,99.90
2019-02-10T14:10:25.788Z,99.90
2019-02-10T14:12:50.263Z,99.90
2019-02-10T14:15:19.949Z,99.90
2019-02-10T14:17:48.437Z,99.90
2019-02-10T14:20:18.820Z,99.90
2019-02-10T14:22:47.710Z,99.90
2019-02-10T14:25:16.274Z,99.90
2019-02-10T14:27:45.121Z,99.90
2019-02-10T14:30:18.904Z,99.90
2019-02-10T14:32:47.465Z,99.90
2019-02-10T14:35:16.302Z,99.90
2019-02-10T14:37:44.797Z,99.90
2019-02-10T14:40:13.576Z,99.90
2019-02-10T14:42:42.064Z,99.90
2019-02-10T14:45:13.651Z,99.90
2019-02-10T14:47:42.282Z,99.90
2019-02-10T14:50:16.165Z,99.90
2019-02-10T14:52:44.691Z,99.90
2019-02-10T14:55:13.791Z,99.90
2019-02-10T14:57:42.354Z,99.90
2019-02-10T15:00:13.474Z,99.90
2019-02-10T15:02:41.962Z,99.90
2019-02-10T15:05:10.571Z,99.90
2019-02-10T15:07:39.137Z,99.90
2019-02-10T15:10:14.040Z,99.90
2019-02-10T15:12:42.523Z,99.90
2019-02-10T15:15:11.714Z,99.90
2019-02-10T15:17:40.277Z,99.90
2019-02-10T15:20:10.678Z,99.90
2019-02-10T15:22:39.391Z,99.90
2019-02-10T15:25:11.985Z,99.90
2019-02-10T15:27:40.554Z,99.90
2019-02-10T15:30:11.743Z,99.90
2019-02-10T15:32:40.313Z,99.90
2019-02-10T15:35:09.165Z,99.90
2019-02-10T15:37:37.720Z,99.90
2019-02-10T15:40:08.437Z,99.90
2019-02-10T15:42:36.918Z,99.90
2019-02-10T15:45:08.303Z,99.90
2019-02-10T15:47:36.916Z,99.90
2019-02-10T15:50:08.590Z,99.90
2019-02-10T15:52:37.155Z,99.90
2019-02-10T15:55:07.549Z,99.90
2019-02-10T15:57:36.195Z,99.90
2019-02-10T16:00:07.876Z,99.90
2019-02-10T16:02:36.659Z,99.90
2019-02-10T16:05:06.218Z,99.90
2019-02-10T16:07:34.852Z,99.90
2019-02-10T16:10:03.863Z,99.90
2019-02-10T16:12:32.429Z,99.90
2019-02-10T16:15:01.071Z,99.90
2019-02-10T16:17:29.625Z,99.90
2019-02-10T16:19:58.167Z,99.90
2019-02-10T16:22:26.739Z,99.90
2019-02-10T16:24:55.272Z,99.90
2019-02-10T16:27:23.779Z,99.90
2019-02-10T16:29:52.315Z,99.90
2019-02-10T16:32:20.841Z,99.90
2019-02-10T16:34:49.321Z,99.90
2019-02-10T16:37:17.888Z,99.90
2019-02-10T16:39:46.425Z,99.90
2019-02-10T16:42:14.988Z,99.90
2019-02-10T16:44:43.641Z,99.90
2019-02-10T16:47:12.135Z,99.90
2019-02-10T16:49:40.627Z,99.90
2019-02-10T16:52:09.253Z,99.90
2019-02-10T16:54:37.783Z,99.90
2019-02-10T16:57:06.358Z,99.90
2019-02-10T16:59:34.912Z,99.90
2019-02-10T17:02:03.483Z,99.90
2019-02-10T17:04:32.104Z,99.90
2019-02-10T17:07:00.591Z,99.90
2019-02-10T17:09:29.137Z,99.90
2019-02-10T17:11:57.613Z,99.90
2019-02-10T17:14:26.157Z,99.90
2019-02-10T17:16:54.625Z,99.90
2019-02-10T17:19:23.219Z,99.90
2019-02-10T17:21:51.758Z,99.90
2019-02-10T17:24:20.324Z,99.90
2019-02-10T17:26:48.867Z,99.90
2019-02-10T17:29:18.353Z,99.90
2019-02-10T17:31:46.835Z,99.90
2019-02-10T17:34:15.394Z,99.90
2019-02-10T17:36:43.862Z,99.90
2019-02-10T17:39:13.366Z,99.90
2019-02-10T17:41:41.913Z,99.90
2019-02-10T17:44:10.863Z,99.90
2019-02-10T17:46:39.401Z,99.90
2019-02-10T17:49:07.917Z,99.90
2019-02-10T17:51:36.470Z,99.90
2019-02-10T17:54:05.069Z,99.90
2019-02-10T17:56:33.617Z,99.90
2019-02-10T17:59:02.130Z,99.90
2019-02-10T18:01:30.761Z,99.90
2019-02-10T18:03:59.343Z,99.90
2019-02-10T18:06:27.874Z,99.90
2019-02-10T18:08:56.447Z,99.90
2019-02-10T18:11:30.920Z,99.90
2019-02-10T18:13:55.304Z,99.90
2019-02-10T18:16:28.535Z,99.90
2019-02-10T18:19:01.458Z,99.90
2019-02-10T18:21:32.312Z,99.90
2019-02-10T18:24:18.804Z,99.90
2019-02-10T18:26:51.954Z,99.90
2019-02-10T18:29:22.163Z,99.90
2019-02-10T18:31:52.337Z,99.90
2019-02-10T18:34:39.039Z,99.90
2019-02-10T18:37:15.100Z,99.90
2019-02-10T18:39:51.241Z,99.90
2019-02-10T18:42:27.409Z,99.90
2019-02-10T18:45:13.904Z,99.90
2019-02-10T18:47:56.374Z,99.90
2019-02-10T18:50:29.353Z,99.90
2019-02-10T18:53:05.513Z,99.90
2019-02-10T18:55:35.920Z,99.90
2019-02-10T18:58:21.223Z,99.90
2019-02-10T19:00:57.257Z,99.90
2019-02-10T19:03:30.404Z,99.90
2019-02-10T19:06:12.678Z,99.90
2019-02-10T19:08:42.869Z,99.90
2019-02-10T19:11:13.048Z,99.90
2019-02-10T19:13:48.764Z,99.90
2019-02-10T19:16:24.557Z,99.90
2019-02-10T19:19:03.509Z,99.90
2019-02-10T19:21:33.701Z,99.90
2019-02-10T19:24:06.779Z,99.90
2019-02-10T19:26:36.965Z,99.90
2019-02-10T19:29:15.977Z,99.90
2019-02-10T19:31:46.416Z,99.90
2019-02-10T19:34:34.351Z,99.90
2019-02-10T19:37:10.690Z,99.90
2019-02-10T19:39:40.822Z,99.90
2019-02-10T19:42:13.739Z,99.90
2019-02-10T19:45:00.413Z,99.90
2019-02-10T19:47:47.168Z,99.90
2019-02-10T19:50:33.301Z,99.90
2019-02-10T19:53:19.769Z,99.90
2019-02-10T19:56:06.376Z,99.90
2019-02-10T19:58:36.581Z,99.90
2019-02-10T20:01:15.458Z,99.90
2019-02-10T20:03:45.704Z,99.90
2019-02-10T20:06:15.919Z,99.90
2019-02-10T20:08:49.414Z,99.90
2019-02-10T20:11:22.518Z,99.90
2019-02-10T20:14:07.789Z,99.90
2019-02-10T20:16:40.974Z,99.90
2019-02-10T20:19:11.085Z,99.90
2019-02-10T20:21:57.411Z,99.90
2019-02-10T20:24:33.436Z,99.90
2019-02-10T20:27:09.474Z,99.90
2019-02-10T20:29:45.425Z,99.90
2019-02-10T20:32:15.616Z,99.90
2019-02-10T20:34:45.745Z,99.90
2019-02-10T20:37:18.681Z,99.90
2019-02-10T20:39:52.212Z,99.90
2019-02-10T20:42:28.468Z,99.90
2019-02-10T20:44:58.720Z,99.90
2019-02-10T20:47:35.073Z,99.90
2019-02-10T20:50:05.496Z,99.90
2019-02-10T20:52:50.376Z,99.90
2019-02-10T20:55:20.581Z,99.90
2019-02-10T20:57:50.769Z,99.90
2019-02-10T21:00:29.784Z,99.90
2019-02-10T21:03:16.380Z,99.90
2019-02-10T21:05:55.522Z,99.90
2019-02-10T21:08:34.384Z,99.90
2019-02-10T21:11:13.471Z,99.90
2019-02-10T21:13:46.280Z,99.90
2019-02-10T21:16:33.306Z,99.90
2019-02-10T21:19:09.281Z,99.90
2019-02-10T21:21:42.206Z,99.90
2019-02-10T21:24:12.387Z,99.90
2019-02-10T21:26:51.582Z,99.90
2019-02-10T21:29:21.688Z,99.90
2019-02-10T21:31:52.150Z,99.90
2019-02-10T21:34:34.374Z,99.90
2019-02-10T21:37:10.424Z,99.90
2019-02-10T21:39:58.733Z,99.90
2019-02-10T21:42:29.412Z,99.90
2019-02-10T21:45:05.394Z,99.90
2019-02-10T21:47:38.618Z,99.90
2019-02-10T21:50:08.130Z,99.90
2019-02-10T21:52:36.742Z,99.90
2019-02-10T21:55:07.358Z,99.90
2019-02-10T21:57:35.878Z,99.90
2019-02-10T22:00:10.361Z,99.90
2019-02-10T22:02:38.997Z,99.90
2019-02-10T22:05:07.825Z,99.90
2019-02-10T22:07:36.393Z,99.90
2019-02-10T22:10:11.033Z,99.90
2019-02-10T22:12:39.759Z,99.90
2019-02-10T22:15:09.990Z,99.90
2019-02-10T22:17:38.545Z,99.90
2019-02-10T22:20:11.912Z,99.90
2019-02-10T22:22:40.732Z,99.90
2019-02-10T22:25:11.126Z,99.90
2019-02-10T22:27:39.690Z,99.90
2019-02-10T22:30:15.957Z,99.90
2019-02-10T22:32:44.599Z,99.90
2019-02-10T22:35:13.135Z,99.90
2019-02-10T22:37:43.237Z,99.90
2019-02-10T22:40:12.626Z,99.90
2019-02-10T22:42:45.776Z,99.90
2019-02-10T22:45:12.582Z,99.90
2019-02-10T22:47:41.250Z,99.90
2019-02-10T22:50:14.166Z,99.90
2019-02-10T22:52:42.754Z,99.90
2019-02-10T22:55:11.395Z,99.90
2019-02-10T22:57:41.271Z,99.90
2019-02-10T23:00:17.269Z,99.90
2019-02-10T23:02:45.757Z,99.90
2019-02-10T23:05:14.480Z,99.90
2019-02-10T23:07:43.042Z,99.90
2019-02-10T23:10:11.505Z,99.90
2019-02-10T23:12:40.001Z,99.90
2019-02-10T23:15:08.542Z,99.90
2019-02-10T23:17:37.114Z,99.90
2019-02-10T23:20:06.637Z,99.90
2019-02-10T23:22:35.200Z,99.90
2019-02-10T23:25:03.979Z,99.90
2019-02-10T23:27:32.482Z,99.90
2019-02-10T23:30:01.022Z,99.90
2019-02-10T23:32:30.425Z,99.90
2019-02-10T23:34:58.972Z,99.90
2019-02-10T23:37:27.466Z,99.90
2019-02-10T23:39:56.055Z,99.90
2019-02-10T23:42:24.624Z,99.90
2019-02-10T23:44:53.182Z,99.90
2019-02-10T23:47:23.016Z,99.90
2019-02-10T23:49:51.601Z,99.90
2019-02-10T23:52:20.179Z,99.90
2019-02-10T23:54:48.720Z,99.90
2019-02-10T23:57:17.348Z,99.90
2019-02-10T23:59:45.825Z,99.90
